Time;durP1;ratioP1;P1;durP2;ratioP2;P2;SDS_P1;SDS_P2;PMS_P1;PMS_P2;Temp;Humidity;BMP_temperature;BMP_pressure;BME280_temperature;BME280_humidity;BME280_pressure;Samples;Min_cycle;Max_cycle;Signal;HPM_P1;HPM_P2
2022/04/23 00:02:03;;;;;;;12.25;9.02;;;;;;;;;;4930041;29;20046;-79
2022/04/23 00:04:30;;;;;;;15.98;8.43;;;;;;;;;;4914567;29;20061;-79
2022/04/23 00:06:59;;;;;;;16.73;8.90;;;;;;;;;;4932350;29;20547;-79
2022/04/23 00:09:25;;;;;;;13.25;8.52;;;;;;;;;;4939185;29;20526;-80
2022/04/23 00:11:55;;;;;;;14.27;8.82;;;;;;;;;;4917465;29;20043;-79
2022/04/23 00:14:21;;;;;;;13.40;8.65;;;;;;;;;;4930182;29;20540;-80
2022/04/23 00:16:50;;;;;;;13.27;9.50;;;;;;;;;;4914249;29;20080;-79
2022/04/23 00:19:16;;;;;;;16.55;9.63;;;;;;;;;;4929436;29;20074;-80
2022/04/23 00:21:42;;;;;;;18.58;9.20;;;;;;;;;;4929872;29;20975;-79
2022/04/23 00:24:08;;;;;;;15.15;8.95;;;;;;;;;;4930822;29;20054;-80
2022/04/23 00:26:34;;;;;;;15.00;9.13;;;;;;;;;;4931107;29;20074;-79
2022/04/23 00:29:01;;;;;;;13.18;8.60;;;;;;;;;;4929101;29;20036;-79
2022/04/23 00:31:27;;;;;;;15.35;10.18;;;;;;;;;;4911910;29;20540;-81
2022/04/23 00:33:53;;;;;;;13.73;9.02;;;;;;;;;;4914223;29;20048;-84
2022/04/23 00:36:23;;;;;;;12.05;8.73;;;;;;;;;;4916565;29;20053;-83
2022/04/23 00:38:52;;;;;;;12.18;9.27;;;;;;;;;;4935861;29;20050;-78
2022/04/23 00:44:04;;;;;;;12.35;9.30;;;;;;;;;;4933647;29;20092;-80
2022/04/23 00:46:30;;;;;;;14.68;9.98;;;;;;;;;;4917041;29;20407;-79
2022/04/23 00:48:58;;;;;;;18.80;10.35;;;;;;;;;;4928465;29;20048;-79
2022/04/23 00:51:24;;;;;;;20.58;10.30;;;;;;;;;;4927670;29;20039;-80
2022/04/23 00:53:51;;;;;;;16.58;10.30;;;;;;;;;;4917392;29;20488;-79
2022/04/23 00:56:18;;;;;;;15.50;9.95;;;;;;;;;;4935370;29;20513;-79
2022/04/23 00:58:44;;;;;;;18.45;10.10;;;;;;;;;;4931585;29;20137;-80
2022/04/23 01:01:10;;;;;;;14.70;10.10;;;;;;;;;;4904141;29;20052;-79
2022/04/23 01:03:36;;;;;;;16.23;9.95;;;;;;;;;;4926109;29;20036;-78
2022/04/23 01:06:02;;;;;;;16.90;9.85;;;;;;;;;;4909312;29;20110;-79
2022/04/23 01:08:28;;;;;;;14.77;10.20;;;;;;;;;;4933061;29;20154;-79
2022/04/23 01:10:54;;;;;;;16.30;9.88;;;;;;;;;;4911126;29;20055;-81
2022/04/23 01:13:21;;;;;;;15.07;10.45;;;;;;;;;;4911465;29;20183;-80
2022/04/23 01:15:56;;;;;;;17.98;9.65;;;;;;;;;;4922156;29;20405;-78
2022/04/23 01:18:22;;;;;;;18.42;10.35;;;;;;;;;;4915268;29;20516;-78
2022/04/23 01:20:48;;;;;;;15.63;10.35;;;;;;;;;;4928594;29;20075;-79
2022/04/23 01:23:14;;;;;;;16.70;10.68;;;;;;;;;;4935341;29;20074;-79
2022/04/23 01:25:41;;;;;;;17.83;10.10;;;;;;;;;;4913019;29;20046;-79
2022/04/23 01:28:07;;;;;;;17.10;10.68;;;;;;;;;;4893861;29;20514;-79
2022/04/23 01:30:33;;;;;;;15.23;10.75;;;;;;;;;;4929826;29;20071;-79
2022/04/23 01:32:59;;;;;;;18.17;10.63;;;;;;;;;;4930984;29;20117;-79
2022/04/23 01:35:26;;;;;;;13.85;10.40;;;;;;;;;;4930410;29;20373;-79
2022/04/23 01:37:52;;;;;;;13.32;9.80;;;;;;;;;;4925840;29;20058;-81
2022/04/23 01:40:18;;;;;;;15.05;10.18;;;;;;;;;;4913726;29;20086;-82
2022/04/23 01:42:44;;;;;;;17.77;11.32;;;;;;;;;;4897698;29;20052;-80
2022/04/23 01:45:11;;;;;;;15.73;10.23;;;;;;;;;;4901209;29;21049;-80
2022/04/23 01:47:37;;;;;;;17.55;10.38;;;;;;;;;;4930362;29;20071;-79
2022/04/23 01:50:03;;;;;;;13.50;10.07;;;;;;;;;;4931736;29;20137;-81
2022/04/23 01:52:29;;;;;;;16.70;11.20;;;;;;;;;;4928763;29;20059;-79
2022/04/23 01:54:55;;;;;;;20.65;10.93;;;;;;;;;;4933146;29;20073;-79
2022/04/23 01:57:21;;;;;;;12.80;10.07;;;;;;;;;;4913798;29;20051;-79
2022/04/23 01:59:47;;;;;;;13.82;10.00;;;;;;;;;;4934556;29;20060;-80
2022/04/23 02:02:13;;;;;;;19.08;11.40;;;;;;;;;;4916138;29;20463;-80
2022/04/23 02:04:39;;;;;;;15.50;10.50;;;;;;;;;;4934291;29;20083;-80
2022/04/23 02:07:05;;;;;;;16.70;10.25;;;;;;;;;;4932683;29;20495;-78
2022/04/23 02:09:33;;;;;;;17.58;11.35;;;;;;;;;;4917748;29;20404;-79
2022/04/23 02:11:59;;;;;;;18.17;10.48;;;;;;;;;;4942589;29;20047;-79
2022/04/23 02:14:25;;;;;;;16.85;10.88;;;;;;;;;;4938391;29;20032;-84
2022/04/23 02:16:51;;;;;;;17.20;10.18;;;;;;;;;;4937574;29;20074;-84
2022/04/23 02:19:18;;;;;;;16.95;11.00;;;;;;;;;;4919368;29;20524;-83
2022/04/23 02:21:44;;;;;;;19.63;11.13;;;;;;;;;;4937117;29;20094;-84
2022/04/23 02:24:10;;;;;;;21.08;11.15;;;;;;;;;;4939424;29;20357;-82
2022/04/23 02:26:36;;;;;;;20.98;10.50;;;;;;;;;;4898772;29;20039;-83
2022/04/23 02:29:03;;;;;;;14.18;10.27;;;;;;;;;;4935298;29;20035;-82
2022/04/23 02:31:29;;;;;;;15.57;10.32;;;;;;;;;;4930494;29;20412;-84
2022/04/23 02:33:57;;;;;;;17.13;10.45;;;;;;;;;;4932807;29;20099;-81
2022/04/23 02:36:23;;;;;;;16.42;11.20;;;;;;;;;;4929233;29;20134;-81
2022/04/23 02:38:51;;;;;;;14.13;10.40;;;;;;;;;;4917527;29;20101;-84
2022/04/23 02:41:18;;;;;;;16.05;11.02;;;;;;;;;;4934876;29;20052;-86
2022/04/23 02:43:45;;;;;;;13.52;9.93;;;;;;;;;;4934362;29;20185;-85
2022/04/23 02:46:15;;;;;;;15.57;10.32;;;;;;;;;;4929885;29;20484;-84
2022/04/23 02:48:41;;;;;;;14.05;10.52;;;;;;;;;;4934032;29;20058;-86
2022/04/23 02:51:07;;;;;;;15.98;11.25;;;;;;;;;;4937471;29;20071;-84
2022/04/23 02:53:34;;;;;;;15.85;11.32;;;;;;;;;;4933413;29;20074;-83
2022/04/23 02:56:02;;;;;;;17.02;10.90;;;;;;;;;;4935092;29;20070;-83
2022/04/23 02:58:29;;;;;;;18.35;11.20;;;;;;;;;;4914470;29;20055;-84
2022/04/23 03:00:55;;;;;;;13.13;10.93;;;;;;;;;;4913941;29;20058;-84
2022/04/23 03:03:21;;;;;;;15.35;10.80;;;;;;;;;;4934625;29;20049;-85
2022/04/23 03:05:47;;;;;;;13.95;10.80;;;;;;;;;;4932178;29;20047;-84
2022/04/23 03:08:14;;;;;;;13.13;10.32;;;;;;;;;;4909696;29;20056;-83
2022/04/23 03:10:41;;;;;;;16.75;11.70;;;;;;;;;;4919024;29;20058;-82
2022/04/23 03:13:08;;;;;;;18.90;11.43;;;;;;;;;;4900221;29;20058;-84
2022/04/23 03:15:34;;;;;;;11.75;9.82;;;;;;;;;;4902434;29;20035;-84
2022/04/23 03:18:05;;;;;;;15.02;11.45;;;;;;;;;;4938976;29;20160;-84
2022/04/23 03:20:31;;;;;;;14.25;11.55;;;;;;;;;;4899998;29;20075;-81
2022/04/23 03:22:57;;;;;;;15.73;12.07;;;;;;;;;;4933636;29;20040;-86
2022/04/23 03:25:23;;;;;;;13.52;10.63;;;;;;;;;;4886471;29;20118;-85
2022/04/23 03:27:50;;;;;;;12.23;10.82;;;;;;;;;;4935090;29;20055;-83
2022/04/23 03:30:16;;;;;;;15.40;11.00;;;;;;;;;;4918117;29;20130;-81
2022/04/23 03:32:42;;;;;;;16.38;11.77;;;;;;;;;;4918519;29;20043;-82
2022/04/23 03:35:09;;;;;;;14.02;10.55;;;;;;;;;;4934744;29;20046;-82
2022/04/23 03:37:38;;;;;;;13.18;11.73;;;;;;;;;;4884680;29;20501;-82
2022/04/23 03:40:05;;;;;;;13.63;11.13;;;;;;;;;;4932349;29;20046;-84
2022/04/23 03:42:31;;;;;;;14.05;11.23;;;;;;;;;;4934473;29;20047;-84
2022/04/23 03:44:57;;;;;;;14.43;11.48;;;;;;;;;;4913376;29;20059;-85
2022/04/23 03:47:23;;;;;;;14.25;11.10;;;;;;;;;;4930566;29;20407;-85
2022/04/23 03:49:49;;;;;;;16.33;11.55;;;;;;;;;;4935862;29;20558;-82
2022/04/23 03:52:15;;;;;;;14.05;10.85;;;;;;;;;;4936253;29;20036;-86
2022/04/23 03:54:41;;;;;;;17.85;11.82;;;;;;;;;;4931075;29;20051;-81
2022/04/23 03:57:07;;;;;;;14.68;11.60;;;;;;;;;;4929405;29;20056;-81
2022/04/23 03:59:37;;;;;;;14.68;11.70;;;;;;;;;;4906189;29;20085;-79
2022/04/23 04:02:04;;;;;;;15.60;11.32;;;;;;;;;;4913131;29;20111;-81
2022/04/23 04:04:33;;;;;;;16.38;12.30;;;;;;;;;;4914128;29;20043;-80
2022/04/23 04:07:00;;;;;;;17.88;12.00;;;;;;;;;;4934872;29;20515;-81
2022/04/23 04:09:27;;;;;;;13.40;10.73;;;;;;;;;;4930723;29;20519;-85
2022/04/23 04:12:02;;;;;;;14.07;11.32;;;;;;;;;;4937393;29;20496;-82
2022/04/23 04:14:32;;;;;;;16.35;11.48;;;;;;;;;;4918623;29;20043;-85
2022/04/23 04:17:02;;;;;;;14.65;12.05;;;;;;;;;;4918079;29;20078;-81
2022/04/23 04:19:32;;;;;;;16.90;11.95;;;;;;;;;;4931156;29;20492;-82
2022/04/23 04:21:59;;;;;;;16.10;11.75;;;;;;;;;;4930237;28;20078;-80
2022/04/23 04:24:27;;;;;;;13.27;11.60;;;;;;;;;;4932214;29;20059;-84
2022/04/23 04:26:53;;;;;;;15.88;10.80;;;;;;;;;;4929754;29;20563;-81
2022/04/23 04:29:20;;;;;;;13.38;11.32;;;;;;;;;;4931672;29;20043;-82
2022/04/23 04:31:49;;;;;;;18.05;11.27;;;;;;;;;;4895635;29;20530;-81
2022/04/23 04:34:17;;;;;;;13.27;11.02;;;;;;;;;;4932571;29;20503;-86
2022/04/23 04:36:43;;;;;;;16.92;11.70;;;;;;;;;;4931556;29;20035;-80
2022/04/23 04:39:09;;;;;;;14.35;11.30;;;;;;;;;;4932817;29;20130;-81
2022/04/23 04:41:35;;;;;;;15.98;11.52;;;;;;;;;;4931760;29;20455;-84
2022/04/23 04:44:05;;;;;;;15.48;11.13;;;;;;;;;;4917308;29;20058;-79
2022/04/23 04:46:34;;;;;;;14.27;11.55;;;;;;;;;;4930995;29;20522;-85
2022/04/23 04:49:03;;;;;;;13.57;10.63;;;;;;;;;;4936003;29;20921;-85
2022/04/23 04:51:30;;;;;;;12.52;11.18;;;;;;;;;;4905190;29;20484;-81
2022/04/23 04:53:56;;;;;;;20.75;11.57;;;;;;;;;;4937001;29;20127;-86
2022/04/23 04:56:22;;;;;;;12.45;10.35;;;;;;;;;;4917049;29;20495;-82
2022/04/23 04:58:48;;;;;;;14.75;12.10;;;;;;;;;;4914607;29;20082;-85
2022/04/23 05:01:15;;;;;;;14.25;11.43;;;;;;;;;;4934631;29;20051;-80
2022/04/23 05:03:41;;;;;;;13.52;11.15;;;;;;;;;;4934242;29;20050;-84
2022/04/23 05:06:07;;;;;;;14.13;11.45;;;;;;;;;;4929379;29;20046;-83
2022/04/23 05:08:36;;;;;;;15.35;11.52;;;;;;;;;;4929404;29;20039;-81
2022/04/23 05:11:03;;;;;;;13.65;10.68;;;;;;;;;;4933616;29;20518;-85
2022/04/23 05:13:30;;;;;;;14.32;11.15;;;;;;;;;;4936833;29;20091;-83
2022/04/23 05:15:56;;;;;;;13.05;10.75;;;;;;;;;;4929236;29;20043;-85
2022/04/23 05:18:22;;;;;;;13.30;10.90;;;;;;;;;;4926617;29;20050;-83
2022/04/23 05:20:49;;;;;;;13.07;10.82;;;;;;;;;;4929889;29;20130;-85
2022/04/23 05:23:15;;;;;;;14.27;11.38;;;;;;;;;;4929176;29;20078;-82
2022/04/23 05:25:41;;;;;;;17.60;11.07;;;;;;;;;;4928332;29;20110;-81
2022/04/23 05:28:07;;;;;;;14.70;11.18;;;;;;;;;;4928291;29;20044;-85
2022/04/23 05:30:37;;;;;;;12.70;10.50;;;;;;;;;;4913356;29;20126;-81
2022/04/23 05:33:03;;;;;;;14.75;10.85;;;;;;;;;;4917767;29;20134;-82
2022/04/23 05:35:29;;;;;;;14.45;11.18;;;;;;;;;;4930699;29;20071;-84
2022/04/23 05:37:56;;;;;;;15.25;10.57;;;;;;;;;;4937770;29;20443;-83
2022/04/23 05:40:22;;;;;;;14.38;11.10;;;;;;;;;;4929892;29;20051;-82
2022/04/23 05:42:48;;;;;;;16.17;10.73;;;;;;;;;;4939893;29;20047;-84
2022/04/23 05:45:14;;;;;;;13.60;11.25;;;;;;;;;;4949539;29;20086;-86
2022/04/23 05:47:43;;;;;;;16.00;10.88;;;;;;;;;;4926047;29;20047;-84
2022/04/23 05:50:10;;;;;;;16.00;10.75;;;;;;;;;;4917932;29;20055;-86
2022/04/23 05:52:39;;;;;;;13.30;10.02;;;;;;;;;;4919103;29;20502;-85
2022/04/23 05:55:06;;;;;;;15.15;11.38;;;;;;;;;;4940516;29;20075;-83
2022/04/23 05:57:32;;;;;;;13.43;10.75;;;;;;;;;;4934702;29;20043;-85
2022/04/23 05:59:58;;;;;;;11.85;10.57;;;;;;;;;;4930882;29;20047;-81
2022/04/23 06:02:24;;;;;;;13.23;10.68;;;;;;;;;;4913035;29;20052;-79
2022/04/23 06:04:52;;;;;;;12.57;10.80;;;;;;;;;;4914978;29;20047;-79
2022/04/23 06:07:18;;;;;;;15.23;11.05;;;;;;;;;;4948629;29;20074;-87
2022/04/23 06:09:44;;;;;;;14.50;10.38;;;;;;;;;;4948765;29;20044;-87
2022/04/23 06:12:11;;;;;;;12.77;11.30;;;;;;;;;;4931758;29;20410;-83
2022/04/23 06:14:37;;;;;;;15.10;11.23;;;;;;;;;;4930514;29;20051;-85
2022/04/23 06:17:07;;;;;;;19.90;11.05;;;;;;;;;;4949666;29;20075;-82
2022/04/23 06:19:33;;;;;;;14.10;11.35;;;;;;;;;;4931420;29;20085;-82
2022/04/23 06:21:59;;;;;;;18.63;11.20;;;;;;;;;;4947582;29;20690;-84
2022/04/23 06:24:26;;;;;;;13.60;11.25;;;;;;;;;;4944643;29;20105;-81
2022/04/23 06:26:52;;;;;;;15.35;11.40;;;;;;;;;;4923634;29;20039;-82
2022/04/23 06:29:18;;;;;;;13.32;11.02;;;;;;;;;;4937082;29;20133;-80
2022/04/23 06:31:44;;;;;;;14.20;11.77;;;;;;;;;;4932335;29;20441;-86
2022/04/23 06:34:11;;;;;;;14.77;11.68;;;;;;;;;;4943023;29;20060;-80
2022/04/23 06:36:37;;;;;;;17.05;10.77;;;;;;;;;;4933715;29;20062;-83
2022/04/23 06:39:05;;;;;;;16.52;12.20;;;;;;;;;;4938058;29;20110;-85
2022/04/23 06:41:31;;;;;;;15.98;11.40;;;;;;;;;;4938385;29;20039;-86
2022/04/23 06:43:58;;;;;;;13.25;11.20;;;;;;;;;;4931189;29;20048;-85
2022/04/23 06:46:25;;;;;;;15.20;11.70;;;;;;;;;;4931465;29;20372;-85
2022/04/23 06:48:51;;;;;;;14.43;11.65;;;;;;;;;;4896279;29;20047;-84
2022/04/23 06:51:17;;;;;;;13.10;11.20;;;;;;;;;;4928609;29;20393;-87
2022/04/23 06:53:43;;;;;;;16.15;12.25;;;;;;;;;;4932884;29;20130;-87
2022/04/23 06:56:10;;;;;;;12.95;10.90;;;;;;;;;;4917672;29;20134;-86
2022/04/23 06:58:36;;;;;;;14.70;11.02;;;;;;;;;;4933547;29;21429;-88
2022/04/23 07:01:03;;;;;;;14.00;11.65;;;;;;;;;;4918660;29;20055;-89
2022/04/23 07:03:30;;;;;;;14.35;11.25;;;;;;;;;;4919178;28;20070;-83
2022/04/23 07:05:56;;;;;;;13.18;11.07;;;;;;;;;;4937418;29;20039;-82
2022/04/23 07:08:22;;;;;;;12.77;10.63;;;;;;;;;;4940688;28;20051;-90
2022/04/23 07:10:49;;;;;;;13.65;11.07;;;;;;;;;;4925261;29;20123;-86
2022/04/23 07:13:15;;;;;;;12.45;10.55;;;;;;;;;;4940199;29;20070;-85
2022/04/23 07:15:44;;;;;;;14.93;10.77;;;;;;;;;;4895513;29;20662;-82
2022/04/23 07:18:10;;;;;;;13.95;11.10;;;;;;;;;;4939471;28;20048;-84
2022/04/23 07:20:39;;;;;;;23.33;11.00;;;;;;;;;;4920754;29;20051;-90
2022/04/23 07:25:50;;;;;;;13.00;10.70;;;;;;;;;;4928222;29;20051;-84
2022/04/23 07:28:16;;;;;;;13.52;10.32;;;;;;;;;;4930886;28;20059;-87
2022/04/23 07:30:43;;;;;;;17.77;11.70;;;;;;;;;;4896130;29;20046;-85
2022/04/23 07:37:28;;;;;;;13.85;10.45;;;;;;;;;;4930570;29;20043;-85
2022/04/23 07:38:40;;;;;;;12.73;10.77;;;;;;;;;;4897242;29;20138;-84
2022/04/23 07:41:06;;;;;;;12.45;11.10;;;;;;;;;;4930435;29;20058;-83
2022/04/23 07:43:32;;;;;;;13.35;11.00;;;;;;;;;;4946694;29;20117;-89
2022/04/23 07:45:58;;;;;;;14.27;10.98;;;;;;;;;;4939931;29;20043;-82
2022/04/23 07:48:24;;;;;;;12.25;10.70;;;;;;;;;;4915133;29;20050;-83
2022/04/23 07:50:50;;;;;;;11.65;10.18;;;;;;;;;;4941322;29;20047;-82
2022/04/23 07:53:16;;;;;;;12.32;10.15;;;;;;;;;;4945714;29;20082;-82
2022/04/23 07:55:42;;;;;;;16.63;10.85;;;;;;;;;;4946702;28;20047;-82
2022/04/23 07:58:11;;;;;;;15.52;11.48;;;;;;;;;;4942037;29;20051;-82
2022/04/23 08:00:40;;;;;;;12.35;10.55;;;;;;;;;;4929152;29;20057;-82
2022/04/23 08:03:08;;;;;;;31.15;11.95;;;;;;;;;;4945530;29;20101;-85
2022/04/23 08:05:34;;;;;;;12.65;10.43;;;;;;;;;;4946549;29;20106;-80
2022/04/23 08:08:01;;;;;;;13.35;10.52;;;;;;;;;;4903288;29;20050;-79
2022/04/23 08:10:27;;;;;;;11.45;10.00;;;;;;;;;;4945551;29;20150;-80
2022/04/23 08:12:54;;;;;;;11.68;10.43;;;;;;;;;;4941743;29;20154;-84
2022/04/23 08:15:20;;;;;;;12.02;10.30;;;;;;;;;;4927584;29;20052;-83
2022/04/23 08:17:47;;;;;;;11.48;10.30;;;;;;;;;;4929367;29;20094;-82
2022/04/23 08:20:13;;;;;;;12.98;9.57;;;;;;;;;;4914103;28;20042;-79
2022/04/23 08:22:39;;;;;;;11.32;9.73;;;;;;;;;;4920290;29;20035;-82
2022/04/23 08:25:05;;;;;;;12.73;10.90;;;;;;;;;;4925970;29;20063;-81
2022/04/23 08:27:31;;;;;;;11.80;9.27;;;;;;;;;;4945449;29;20039;-81
2022/04/23 08:32:42;;;;;;;10.95;9.85;;;;;;;;;;4936951;29;20121;-83
2022/04/23 08:35:08;;;;;;;13.18;9.90;;;;;;;;;;4937989;29;20081;-81
2022/04/23 08:37:35;;;;;;;11.48;9.60;;;;;;;;;;4938596;29;20522;-82
2022/04/23 08:40:01;;;;;;;11.25;10.05;;;;;;;;;;4937724;29;20048;-81
2022/04/23 08:42:27;;;;;;;11.48;10.35;;;;;;;;;;4934418;29;20465;-83
2022/04/23 08:44:53;;;;;;;11.48;10.27;;;;;;;;;;4936861;29;20059;-82
2022/04/23 08:47:22;;;;;;;14.77;9.93;;;;;;;;;;4937626;29;20412;-85
2022/04/23 08:49:51;;;;;;;11.55;10.43;;;;;;;;;;4932239;28;20242;-84
2022/04/23 08:52:18;;;;;;;11.23;9.95;;;;;;;;;;4921709;29;20047;-82
2022/04/23 08:54:45;;;;;;;11.10;10.10;;;;;;;;;;4919924;29;20093;-84
2022/04/23 08:57:11;;;;;;;10.88;9.52;;;;;;;;;;4936872;29;20487;-80
2022/04/23 08:59:37;;;;;;;12.00;9.90;;;;;;;;;;4920288;29;20130;-81
2022/04/23 09:02:08;;;;;;;11.27;9.60;;;;;;;;;;4941037;28;20043;-81
2022/04/23 09:04:37;;;;;;;12.90;9.10;;;;;;;;;;4912548;29;21247;-81
2022/04/23 09:07:03;;;;;;;10.25;9.15;;;;;;;;;;4940313;28;20501;-82
2022/04/23 09:09:29;;;;;;;10.77;9.75;;;;;;;;;;4914706;29;20513;-79
2022/04/23 09:11:59;;;;;;;12.55;10.10;;;;;;;;;;4931641;29;20039;-78
2022/04/23 09:14:26;;;;;;;12.07;9.68;;;;;;;;;;4914477;29;20883;-78
2022/04/23 09:25:14;;;;;;;10.80;9.50;;;;;;;;;;4915479;29;20131;-79
2022/04/23 09:27:43;;;;;;;16.65;9.23;;;;;;;;;;4937515;29;20054;-80
2022/04/23 09:30:11;;;;;;;12.57;8.98;;;;;;;;;;4936390;29;20134;-80
2022/04/23 09:32:37;;;;;;;10.48;9.45;;;;;;;;;;4924770;29;20441;-80
2022/04/23 09:35:13;;;;;;;11.10;10.00;;;;;;;;;;4930632;29;20412;-80
2022/04/23 09:40:27;;;;;;;16.13;8.65;;;;;;;;;;4937254;29;20052;-81
2022/04/23 09:43:12;;;;;;;14.65;9.60;;;;;;;;;;4939208;29;20098;-79
2022/04/23 09:45:42;;;;;;;11.38;8.55;;;;;;;;;;4941826;29;20047;-79
2022/04/23 09:48:15;;;;;;;15.10;8.00;;;;;;;;;;4947383;29;20059;-80
2022/04/23 09:50:41;;;;;;;10.05;8.13;;;;;;;;;;4936784;28;20527;-80
2022/04/23 09:53:08;;;;;;;12.68;8.57;;;;;;;;;;4915968;29;20099;-80
2022/04/23 09:55:34;;;;;;;9.02;8.13;;;;;;;;;;4930831;29;20050;-78
2022/04/23 09:58:01;;;;;;;18.52;6.95;;;;;;;;;;4950412;29;20035;-79
2022/04/23 10:00:28;;;;;;;12.13;6.85;;;;;;;;;;4935737;29;20047;-81
2022/04/23 10:02:55;;;;;;;8.88;5.90;;;;;;;;;;4948017;28;20049;-83
2022/04/23 10:05:22;;;;;;;9.27;6.13;;;;;;;;;;4948375;29;20389;-83
2022/04/23 10:07:50;;;;;;;7.43;6.20;;;;;;;;;;4915691;29;20040;-80
2022/04/23 10:10:17;;;;;;;12.75;7.18;;;;;;;;;;4947452;28;20051;-78
2022/04/23 10:12:44;;;;;;;10.57;7.03;;;;;;;;;;4949166;29;21470;-83
2022/04/23 10:15:11;;;;;;;8.10;6.65;;;;;;;;;;4940102;29;20044;-82
2022/04/23 10:17:38;;;;;;;14.93;6.90;;;;;;;;;;4930060;29;20048;-86
2022/04/23 10:20:05;;;;;;;7.43;6.72;;;;;;;;;;4916081;29;20039;-80
2022/04/23 10:22:53;;;;;;;7.88;6.90;;;;;;;;;;4892442;29;20043;-80
2022/04/23 10:25:22;;;;;;;12.68;7.35;;;;;;;;;;4942247;29;20802;-80
2022/04/23 10:27:50;;;;;;;10.18;6.65;;;;;;;;;;4938133;28;20051;-81
2022/04/23 10:30:22;;;;;;;13.73;7.57;;;;;;;;;;4922341;29;20036;-83
2022/04/23 10:32:48;;;;;;;7.00;6.30;;;;;;;;;;4907911;29;20497;-80
2022/04/23 10:35:17;;;;;;;10.25;5.75;;;;;;;;;;4916177;29;20599;-81
2022/04/23 10:37:43;;;;;;;7.95;6.68;;;;;;;;;;4913875;29;20055;-80
2022/04/23 10:40:14;;;;;;;7.07;6.40;;;;;;;;;;4930095;29;20048;-80
2022/04/23 10:42:40;;;;;;;6.50;5.90;;;;;;;;;;4921093;29;20060;-80
2022/04/23 10:45:07;;;;;;;8.82;5.22;;;;;;;;;;4916134;29;20047;-81
2022/04/23 10:47:35;;;;;;;8.95;6.65;;;;;;;;;;4937018;29;20810;-81
2022/04/23 10:52:40;;;;;;;6.93;6.13;;;;;;;;;;4916078;29;20110;-80
2022/04/23 10:55:07;;;;;;;9.27;5.45;;;;;;;;;;4906713;29;20386;-81
2022/04/23 10:57:34;;;;;;;10.35;6.55;;;;;;;;;;4946888;29;20099;-81
2022/04/23 11:00:11;;;;;;;15.15;7.57;;;;;;;;;;4929127;29;20078;-81
2022/04/23 11:02:39;;;;;;;15.85;6.47;;;;;;;;;;4941466;29;20061;-81
2022/04/23 11:13:40;;;;;;;7.10;4.95;;;;;;;;;;4934226;29;20464;-81
2022/04/23 11:16:07;;;;;;;8.05;4.65;;;;;;;;;;4912660;29;20101;-81
2022/04/23 11:18:39;;;;;;;9.55;5.00;;;;;;;;;;4899988;29;20075;-81
2022/04/23 11:21:18;;;;;;;7.70;4.70;;;;;;;;;;4935581;29;20556;-81
2022/04/23 11:23:47;;;;;;;9.25;5.25;;;;;;;;;;4937902;29;20043;-82
2022/04/23 11:26:18;;;;;;;5.40;4.70;;;;;;;;;;4931563;29;20086;-81
2022/04/23 11:28:44;;;;;;;5.13;4.53;;;;;;;;;;4940644;29;20071;-81
2022/04/23 11:31:11;;;;;;;9.65;4.35;;;;;;;;;;4911942;29;20519;-81
2022/04/23 11:33:38;;;;;;;9.85;3.65;;;;;;;;;;4913157;28;20062;-81
2022/04/23 11:36:04;;;;;;;5.68;3.90;;;;;;;;;;4929483;29;20043;-82
2022/04/23 11:38:31;;;;;;;8.45;4.43;;;;;;;;;;4901430;29;20130;-81
2022/04/23 11:40:57;;;;;;;5.40;4.20;;;;;;;;;;4938982;29;20039;-81
2022/04/23 11:43:30;;;;;;;7.32;4.78;;;;;;;;;;4931566;29;20087;-81
2022/04/23 11:46:01;;;;;;;8.30;5.03;;;;;;;;;;4933666;29;20044;-81
2022/04/23 11:48:28;;;;;;;6.55;4.40;;;;;;;;;;4928622;29;20036;-80
2022/04/23 11:51:05;;;;;;;8.57;5.07;;;;;;;;;;4944302;29;20058;-81
2022/04/23 11:53:46;;;;;;;4.82;4.25;;;;;;;;;;4917273;29;20131;-81
2022/04/23 11:56:19;;;;;;;7.57;4.65;;;;;;;;;;4941282;29;20078;-81
2022/04/23 11:58:45;;;;;;;7.65;4.88;;;;;;;;;;4913607;29;20039;-81
2022/04/23 12:01:12;;;;;;;8.10;4.30;;;;;;;;;;4920892;28;20078;-80
2022/04/23 12:03:47;;;;;;;8.65;4.10;;;;;;;;;;4919157;29;20066;-80
2022/04/23 12:06:14;;;;;;;5.55;4.60;;;;;;;;;;4922549;29;20047;-80
2022/04/23 12:08:40;;;;;;;8.80;5.03;;;;;;;;;;4899311;29;20059;-81
2022/04/23 12:11:19;;;;;;;7.97;5.00;;;;;;;;;;4896542;29;20133;-81
2022/04/23 12:13:48;;;;;;;4.35;3.95;;;;;;;;;;4937710;28;20107;-81
2022/04/23 12:16:14;;;;;;;8.10;4.00;;;;;;;;;;4899294;29;20141;-80
2022/04/23 12:18:41;;;;;;;16.83;4.22;;;;;;;;;;4931365;29;20047;-79
2022/04/23 12:21:07;;;;;;;17.33;4.18;;;;;;;;;;4927602;29;20059;-81
2022/04/23 12:23:41;;;;;;;8.70;3.92;;;;;;;;;;4913084;29;20043;-82
2022/04/23 12:26:11;;;;;;;;;;;20.20;99.90;;;;;;4896639;29;20075;-81
2022/04/23 12:42:24;;;;;;;415.52;23.58;;;;;;;;;;4909776;29;20055;-81
2022/04/23 12:44:52;;;;;;;28.20;4.97;;;;;;;;;;4926944;29;20047;-81
2022/04/23 12:47:32;;;;;;;21.17;4.10;;;;;;;;;;4908311;29;20086;-80
2022/04/23 12:50:02;;;;;;;5.35;3.00;;;;;;;;;;4928650;29;20134;-81
2022/04/23 12:52:28;;;;;;;3.45;3.15;;;;;;;;;;4930766;29;20091;-81
2022/04/23 12:55:14;;;;;;;3.45;2.95;;;;;;;;;;4938220;29;20039;-81
2022/04/23 12:57:43;;;;;;;9.77;3.00;;;;;;;;;;4923147;29;20056;-80
2022/04/23 13:02:53;;;;;;;5.80;3.30;;;;;;;;;;5150785;27;20429;-82
2022/04/23 13:05:20;;;;;;;4.72;3.30;;;;;;;;;;5118481;27;20044;-83
2022/04/23 13:10:32;;;;;;;5.80;3.50;;;;;;;;;;5123733;28;20455;-81
2022/04/23 13:12:59;;;;;;;3.50;2.92;;;;;;;;;;5122584;27;20078;-81
2022/04/23 13:15:26;;;;;;;6.60;3.05;;;;;;;;;;5129224;27;20114;-83
2022/04/23 13:17:52;;;;;;;3.97;3.35;;;;;;;;;;5122185;27;20039;-81
2022/04/23 13:20:19;;;;;;;5.13;2.70;;;;;;;;;;5123728;27;20043;-82
2022/04/23 13:22:45;;;;;;;7.82;3.38;;;;;;;;;;5117108;27;20081;-82
2022/04/23 13:25:15;;;;;;;7.03;2.90;;;;;;;;;;5115092;27;20521;-82
2022/04/23 13:27:41;;;;;;;6.75;3.25;;;;;;;;;;5140620;27;20040;-81
2022/04/23 13:30:08;;;;;;;3.70;3.22;;;;;;;;;;5119171;28;20031;-82
2022/04/23 13:32:35;;;;;;;3.50;2.53;;;;;;;;;;5123633;28;20035;-81
2022/04/23 13:35:06;;;;;;;8.35;2.70;;;;;;;;;;5120509;27;20047;-81
2022/04/23 13:37:33;;;;;;;4.57;3.03;;;;;;;;;;5122224;27;20062;-81
2022/04/23 13:39:59;;;;;;;7.22;2.63;;;;;;;;;;5118509;27;20108;-82
2022/04/23 13:42:25;;;;;;;9.40;2.80;;;;;;;;;;5118994;27;20047;-82
2022/04/23 13:44:51;;;;;;;3.63;2.83;;;;;;;;;;5122444;27;20511;-82
2022/04/23 13:47:18;;;;;;;3.92;3.00;;;;;;;;;;5120495;28;20039;-82
2022/04/23 13:49:44;;;;;;;6.43;3.42;;;;;;;;;;5117954;27;20161;-83
2022/04/23 13:52:10;;;;;;;3.28;2.97;;;;;;;;;;5119115;27;20043;-82
2022/04/23 13:54:36;;;;;;;4.55;2.90;;;;;;;;;;5123454;27;20487;-83
2022/04/23 13:57:03;;;;;;;4.32;2.83;;;;;;;;;;5120670;27;20407;-83
2022/04/23 13:59:29;;;;;;;7.18;2.92;;;;;;;;;;5122421;27;20047;-82
2022/04/23 14:10:10;;;;;;;10.07;2.85;;;;;;;;;;5116020;27;20490;-83
2022/04/23 14:12:37;;;;;;;6.47;3.13;;;;;;;;;;5106882;27;20052;-84
2022/04/23 14:15:07;;;;;;;7.03;3.50;;;;;;;;;;5103861;27;20126;-82
2022/04/23 14:17:33;;;;;;;4.18;3.00;;;;;;;;;;5102106;27;20117;-81
2022/04/23 14:20:00;;;;;;;5.05;3.00;;;;;;;;;;5114854;27;20049;-81
2022/04/23 14:22:26;;;;;;;4.78;3.00;;;;;;;;;;5098600;27;20040;-81
2022/04/23 14:24:52;;;;;;;5.95;2.88;;;;;;;;;;5100128;27;20063;-82
2022/04/23 14:27:18;;;;;;;3.10;2.80;;;;;;;;;;5101947;27;20046;-81
2022/04/23 14:29:45;;;;;;;4.65;2.70;;;;;;;;;;5096457;27;20411;-82
2022/04/23 14:32:11;;;;;;;5.57;3.10;;;;;;;;;;5113180;27;20031;-82
2022/04/23 14:34:37;;;;;;;4.28;2.60;;;;;;;;;;5102467;27;20080;-80
2022/04/23 14:37:03;;;;;;;4.75;2.75;;;;;;;;;;5094119;27;20044;-82
2022/04/23 14:39:30;;;;;;;8.65;3.08;;;;;;;;;;5080897;27;20048;-82
2022/04/23 14:41:56;;;;;;;3.33;3.00;;;;;;;;;;5100547;27;20124;-82
2022/04/23 14:44:22;;;;;;;3.42;3.10;;;;;;;;;;5102292;27;20380;-82
2022/04/23 14:47:09;;;;;;;5.40;2.90;;;;;;;;;;5101690;27;20031;-82
2022/04/23 14:49:35;;;;;;;3.88;3.03;;;;;;;;;;5097453;27;20048;-82
2022/04/23 14:54:46;;;;;;;3.28;2.90;;;;;;;;;;5116686;27;20051;-83
2022/04/23 14:57:12;;;;;;;11.60;2.95;;;;;;;;;;5096810;27;20031;-82
2022/04/23 14:59:38;;;;;;;8.20;3.10;;;;;;;;;;5102775;27;20084;-82
2022/04/23 15:02:05;;;;;;;4.75;3.03;;;;;;;;;;5097027;27;20162;-82
2022/04/23 15:04:31;;;;;;;5.38;2.78;;;;;;;;;;5097660;27;20046;-82
2022/04/23 15:06:58;;;;;;;7.40;3.28;;;;;;;;;;5104130;27;20632;-82
2022/04/23 15:09:33;;;;;;;4.57;2.85;;;;;;;;;;5102920;28;20745;-81
2022/04/23 15:11:59;;;;;;;3.15;2.85;;;;;;;;;;5099723;27;20475;-81
2022/04/23 15:14:26;;;;;;;8.55;3.30;;;;;;;;;;5100586;27;20073;-82
2022/04/23 15:16:53;;;;;;;9.38;3.05;;;;;;;;;;5097505;27;20040;-82
2022/04/23 15:19:19;;;;;;;3.22;2.85;;;;;;;;;;5098405;27;20130;-81
2022/04/23 15:21:45;;;;;;;4.53;3.05;;;;;;;;;;5109530;27;20043;-82
2022/04/23 15:24:11;;;;;;;4.45;2.78;;;;;;;;;;5099263;28;20525;-81
2022/04/23 15:26:40;;;;;;;4.88;3.10;;;;;;;;;;5102882;27;20487;-81
2022/04/23 15:29:06;;;;;;;3.97;2.97;;;;;;;;;;5106885;27;20038;-82
2022/04/23 15:31:32;;;;;;;3.20;2.97;;;;;;;;;;5103434;27;20052;-82